Terminal Aerodrome Forecast
Issued by NWS

Home | Current Version | Previous Version | Text Only | Print | Product List | Glossary On
Versions: 1 2 3 4 5 6 7 8 9 10 11 12
000
FTPA31 PHFO 232347
TAFHKO
TAF
PHKO 232347Z 2400/2424 25012KT P6SM SCT060
     FM240400 20010KT P6SM SCT020 BKN060
     FM240700 17010G17KT P6SM VCSH SCT020 BKN035
     FM241400 17012G18KT P6SM VCTS SCT015CB BKN030 BKN045=

USA.gov is the U.S. government's official web portal to all federal, state and local government web resources and services.